PWSweather.com
Personal Weather Stations
Station Observations
KNYSYRAC2
Fairmount Hills, Fairmount, NY 13219

Fairmount HillsFairmount, NY 13219

Lat: 43.03602, Lon: -76.247151

Elevation: 663

Station Type: Ambient Weather WS-2080

http://weather.cerchia.com

High Low Average
Temperature 43.8°F6.6°F 20.9°F-6.2°F 33.3°F0.7°F
Dew Point 38.4°F3.6°F -3.3°F-19.6°F 17.5°F-8.1°F
Winds 11.2 mph SW18.0 mph SW 1.6 mph 2.6 mph 6.5 mph 10.5 mph
Wind Gusts 19.0 mph30.6 mph 3.8 mph6.1 mph 9.6 mph15.4 mph
Humidity 84% 18% 55%
Pressure 30.40 in1029.50 in 30.00 in1015.90 in -
Precipitation 0.29 in7.40 in - -
Hour Temp Dew Point Humidity Winds Wind Gusts Pressure Precip Precip Rate Daily Precip Total
12:00 AM 20.9°F-6.2°C 12.1°F-11.1°C 68% 4.7 mph SE7.6 kmh SE 5.4 mph8.7 kmh 30.40 in1029.5 mb 0.00 in0.0 mm 0.00 in/hr0.0 mm/hr 0.00 in0.0 mm
12:15 AM 21.5°F-5.8°C 11.9°F-11.2°C 66% 4.7 mph SE7.6 kmh SE 7.6 mph12.2 kmh 30.40 in1029.5 mb 0.00 in0.0 mm 0.00 in/hr0.0 mm/hr 0.00 in0.0 mm
12:30 AM 21.5°F-5.8°C 11.6°F-11.3°C 65% 3.8 mph SE6.1 kmh SE 4.5 mph7.2 kmh 30.39 in1029.1 mb 0.00 in0.0 mm 0.00 in/hr0.0 mm/hr 0.00 in0.0 mm
12:45 AM 21.8°F-5.7°C 11.6°F-11.3°C 64% 4.1 mph SE6.6 kmh SE 4.5 mph7.2 kmh 30.39 in1029.1 mb 0.00 in0.0 mm 0.00 in/hr0.0 mm/hr 0.00 in0.0 mm
01:00 AM 22.0°F-5.6°C 11.0°F-11.7°C 62% 3.9 mph SSE6.3 kmh SSE 5.4 mph8.7 kmh 30.39 in1029.1 mb 0.00 in0.0 mm 0.00 in/hr0.0 mm/hr 0.00 in0.0 mm
01:15 AM 22.4°F-5.3°C 11.0°F-11.7°C 61% 3.8 mph SSE6.1 kmh SSE 5.4 mph8.7 kmh 30.39 in1029.1 mb 0.00 in0.0 mm 0.00 in/hr0.0 mm/hr 0.00 in0.0 mm
01:30 AM 22.9°F-5.1°C 11.1°F-11.6°C 60% 4.7 mph SSE7.6 kmh SSE 6.9 mph11.1 kmh 30.39 in1029.1 mb 0.00 in0.0 mm 0.00 in/hr0.0 mm/hr 0.00 in0.0 mm
01:45 AM 23.4°F-4.8°C 11.3°F-11.5°C 59% 4.3 mph SE6.9 kmh SE 6.0 mph9.7 kmh 30.39 in1029.1 mb 0.00 in0.0 mm 0.00 in/hr0.0 mm/hr 0.00 in0.0 mm
02:00 AM 23.6°F-4.7°C 11.1°F-11.6°C 58% 3.9 mph S6.3 kmh S 4.5 mph7.2 kmh 30.38 in1028.8 mb 0.00 in0.0 mm 0.00 in/hr0.0 mm/hr 0.00 in0.0 mm
02:15 AM 23.8°F-4.6°C 10.0°F-12.2°C 55% 6.4 mph S10.3 kmh S 9.8 mph15.8 kmh 30.38 in1028.8 mb 0.00 in0.0 mm 0.00 in/hr0.0 mm/hr 0.00 in0.0 mm
02:30 AM 23.8°F-4.6°C 9.6°F-12.4°C 54% 4.5 mph SE7.2 kmh SE 6.0 mph9.7 kmh 30.38 in1028.8 mb 0.00 in0.0 mm 0.00 in/hr0.0 mm/hr 0.00 in0.0 mm
02:45 AM 23.4°F-4.8°C 8.9°F-12.8°C 53% 4.0 mph SSE6.4 kmh SSE 6.0 mph9.7 kmh 30.37 in1028.4 mb 0.00 in0.0 mm 0.00 in/hr0.0 mm/hr 0.00 in0.0 mm
03:00 AM 23.1°F-4.9°C 8.5°F-13.1°C 53% 3.3 mph SSE5.3 kmh SSE 6.0 mph9.7 kmh 30.37 in1028.4 mb 0.00 in0.0 mm 0.00 in/hr0.0 mm/hr 0.00 in0.0 mm
03:15 AM 22.5°F-5.3°C 8.0°F-13.3°C 53% 5.3 mph S8.5 kmh S 6.9 mph11.1 kmh 30.36 in1028.1 mb 0.00 in0.0 mm 0.00 in/hr0.0 mm/hr 0.00 in0.0 mm
03:30 AM 22.2°F-5.4°C 7.7°F-13.5°C 53% 2.6 mph S4.2 kmh S 6.0 mph9.7 kmh 30.36 in1028.1 mb 0.00 in0.0 mm 0.00 in/hr0.0 mm/hr 0.00 in0.0 mm
03:45 AM 21.6°F-5.8°C 7.6°F-13.6°C 54% 3.2 mph SW5.1 kmh SW 4.5 mph7.2 kmh 30.36 in1028.1 mb 0.00 in0.0 mm 0.00 in/hr0.0 mm/hr 0.00 in0.0 mm
04:00 AM 21.3°F-5.9°C 7.3°F-13.7°C 54% 1.6 mph SE2.6 kmh SE 3.8 mph6.1 kmh 30.35 in1027.8 mb 0.00 in0.0 mm 0.00 in/hr0.0 mm/hr 0.00 in0.0 mm
04:15 AM 21.5°F-5.8°C 7.5°F-13.6°C 54% 2.6 mph SSE4.2 kmh SSE 4.5 mph7.2 kmh 30.35 in1027.8 mb 0.00 in0.0 mm 0.00 in/hr0.0 mm/hr 0.00 in0.0 mm
04:30 AM 22.0°F-5.6°C 7.1°F-13.8°C 52% 3.9 mph SSE6.3 kmh SSE 6.9 mph11.1 kmh 30.34 in1027.4 mb 0.00 in0.0 mm 0.00 in/hr0.0 mm/hr 0.00 in0.0 mm
04:45 AM 22.2°F-5.4°C 7.3°F-13.7°C 52% 3.8 mph SSE6.1 kmh SSE 6.9 mph11.1 kmh 30.33 in1027.1 mb 0.00 in0.0 mm 0.00 in/hr0.0 mm/hr 0.00 in0.0 mm
05:00 AM 22.5°F-5.3°C 7.6°F-13.6°C 52% 3.5 mph SE5.6 kmh SE 6.9 mph11.1 kmh 30.33 in1027.1 mb 0.00 in0.0 mm 0.00 in/hr0.0 mm/hr 0.00 in0.0 mm
05:15 AM 22.7°F-5.2°C 7.4°F-13.7°C 51% 4.2 mph S6.8 kmh S 7.6 mph12.2 kmh 30.33 in1027.1 mb 0.00 in0.0 mm 0.00 in/hr0.0 mm/hr 0.00 in0.0 mm
05:30 AM 22.9°F-5.1°C 7.1°F-13.8°C 50% 6.1 mph SSE9.8 kmh SSE 10.7 mph17.2 kmh 30.33 in1027.1 mb 0.00 in0.0 mm 0.00 in/hr0.0 mm/hr 0.00 in0.0 mm
05:45 AM 23.1°F-4.9°C 7.3°F-13.7°C 50% 3.9 mph SE6.3 kmh SE 5.4 mph8.7 kmh 30.32 in1026.8 mb 0.00 in0.0 mm 0.00 in/hr0.0 mm/hr 0.00 in0.0 mm
06:00 AM 23.4°F-4.8°C 7.1°F-13.8°C 49% 5.1 mph S8.2 kmh S 8.3 mph13.4 kmh 30.31 in1026.4 mb 0.00 in0.0 mm 0.00 in/hr0.0 mm/hr 0.00 in0.0 mm
06:15 AM 23.6°F-4.7°C 7.3°F-13.7°C 49% 3.2 mph SSE5.1 kmh SSE 4.5 mph7.2 kmh 30.31 in1026.4 mb 0.00 in0.0 mm 0.00 in/hr0.0 mm/hr 0.00 in0.0 mm
06:30 AM 23.8°F-4.6°C 6.1°F-14.4°C 46% 6.1 mph S9.8 kmh S 8.3 mph13.4 kmh 30.30 in1026.1 mb 0.00 in0.0 mm 0.00 in/hr0.0 mm/hr 0.00 in0.0 mm
06:45 AM 24.0°F-4.4°C 5.8°F-14.6°C 45% 5.2 mph SSE8.4 kmh SSE 7.6 mph12.2 kmh 30.29 in1025.7 mb 0.00 in0.0 mm 0.00 in/hr0.0 mm/hr 0.00 in0.0 mm
07:00 AM 24.3°F-4.3°C 5.6°F-14.7°C 44% 5.5 mph SSE8.9 kmh SSE 6.9 mph11.1 kmh 30.29 in1025.7 mb 0.00 in0.0 mm 0.00 in/hr0.0 mm/hr 0.00 in0.0 mm
07:15 AM 24.5°F-4.2°C 5.3°F-14.8°C 43% 4.4 mph SE7.1 kmh SE 5.4 mph8.7 kmh 30.28 in1025.4 mb 0.00 in0.0 mm 0.00 in/hr0.0 mm/hr 0.00 in0.0 mm
07:30 AM 24.5°F-4.2°C 5.3°F-14.8°C 43% 4.1 mph SE6.6 kmh SE 4.5 mph7.2 kmh 30.28 in1025.4 mb 0.00 in0.0 mm 0.00 in/hr0.0 mm/hr 0.00 in0.0 mm
07:45 AM 24.9°F-3.9°C 5.1°F-14.9°C 42% 4.5 mph SE7.2 kmh SE 6.9 mph11.1 kmh 30.27 in1025.1 mb 0.00 in0.0 mm 0.00 in/hr0.0 mm/hr 0.00 in0.0 mm
08:00 AM 25.2°F-3.8°C 5.4°F-14.8°C 42% 4.5 mph E7.2 kmh E 6.9 mph11.1 kmh 30.27 in1025.1 mb 0.00 in0.0 mm 0.00 in/hr0.0 mm/hr 0.00 in0.0 mm
08:15 AM 25.8°F-3.4°C 4.8°F-15.1°C 40% 4.4 mph SE7.1 kmh SE 5.4 mph8.7 kmh 30.26 in1024.7 mb 0.00 in0.0 mm 0.00 in/hr0.0 mm/hr 0.00 in0.0 mm
08:30 AM 26.5°F-3.1°C 4.4°F-15.3°C 38% 5.4 mph S8.7 kmh S 7.6 mph12.2 kmh 30.26 in1024.7 mb 0.00 in0.0 mm 0.00 in/hr0.0 mm/hr 0.00 in0.0 mm
08:45 AM 27.6°F-2.4°C 7.5°F-13.6°C 42% 3.8 mph S6.1 kmh S 5.4 mph8.7 kmh 30.26 in1024.7 mb 0.00 in0.0 mm 0.00 in/hr0.0 mm/hr 0.00 in0.0 mm
09:00 AM 28.7°F-1.8°C 7.4°F-13.7°C 40% 4.6 mph S7.4 kmh S 5.4 mph8.7 kmh 30.25 in1024.4 mb 0.00 in0.0 mm 0.00 in/hr0.0 mm/hr 0.00 in0.0 mm
09:15 AM 29.7°F-1.3°C 7.3°F-13.7°C 38% 4.9 mph SE7.9 kmh SE 6.9 mph11.1 kmh 30.24 in1024.0 mb 0.00 in0.0 mm 0.00 in/hr0.0 mm/hr 0.00 in0.0 mm
09:30 AM 30.3°F-0.9°C 5.3°F-14.8°C 34% 4.5 mph SE7.2 kmh SE 8.3 mph13.4 kmh 30.23 in1023.7 mb 0.00 in0.0 mm 0.00 in/hr0.0 mm/hr 0.00 in0.0 mm
09:45 AM 32.3°F0.2°C 5.1°F-14.9°C 31% 5.4 mph W8.7 kmh W 8.3 mph13.4 kmh 30.22 in1023.4 mb 0.00 in0.0 mm 0.00 in/hr0.0 mm/hr 0.00 in0.0 mm
10:00 AM 34.4°F1.3°C 0.5°F-17.5°C 23% 6.0 mph SSW9.7 kmh SSW 6.9 mph11.1 kmh 30.22 in1023.4 mb 0.00 in0.0 mm 0.00 in/hr0.0 mm/hr 0.00 in0.0 mm
10:15 AM 36.0°F2.2°C -3.3°F-19.6°C 18% 5.9 mph SE9.5 kmh SE 9.2 mph14.8 kmh 30.20 in1022.7 mb 0.00 in0.0 mm 0.00 in/hr0.0 mm/hr 0.00 in0.0 mm
10:30 AM 36.9°F2.7°C -0.3°F-17.9°C 20% 8.2 mph SE13.2 kmh SE 15.2 mph24.5 kmh 30.19 in1022.4 mb 0.00 in0.0 mm 0.00 in/hr0.0 mm/hr 0.00 in0.0 mm
10:45 AM 37.1°F2.8°C -0.2°F-17.9°C 20% 5.5 mph S8.9 kmh S 8.3 mph13.4 kmh 30.17 in1021.7 mb 0.00 in0.0 mm 0.00 in/hr0.0 mm/hr 0.00 in0.0 mm
11:00 AM 37.5°F3.1°C -2.1°F-18.9°C 18% 7.8 mph SW12.6 kmh SW 15.2 mph24.5 kmh 30.17 in1021.7 mb 0.00 in0.0 mm 0.00 in/hr0.0 mm/hr 0.00 in0.0 mm
11:15 AM 37.5°F3.1°C -2.1°F-18.9°C 18% 10.2 mph S16.4 kmh S 11.4 mph18.3 kmh 30.14 in1020.7 mb 0.00 in0.0 mm 0.00 in/hr0.0 mm/hr 0.00 in0.0 mm
11:30 AM 37.8°F3.2°C -1.8°F-18.8°C 18% 10.4 mph S16.7 kmh S 14.5 mph23.3 kmh 30.13 in1020.3 mb 0.00 in0.0 mm 0.00 in/hr0.0 mm/hr 0.00 in0.0 mm
11:45 AM 37.8°F3.2°C -1.8°F-18.8°C 18% 9.3 mph SW15.0 kmh SW 16.8 mph27.0 kmh 30.12 in1020.0 mb 0.01 in0.3 mm 0.04 in/hr1.0 mm/hr 0.01 in0.3 mm
12:00 PM 38.2°F3.4°C -1.5°F-18.6°C 18% 7.6 mph SSW12.2 kmh SSW 11.4 mph18.3 kmh 30.11 in1019.6 mb 0.01 in0.3 mm 0.00 in/hr0.0 mm/hr 0.01 in0.3 mm
12:15 PM 38.2°F3.4°C -0.4°F-18.0°C 19% 8.0 mph SW12.9 kmh SW 9.8 mph15.8 kmh 30.11 in1019.6 mb 0.01 in0.3 mm 0.00 in/hr0.0 mm/hr 0.01 in0.3 mm
12:30 PM 38.6°F3.7°C 1.0°F-17.2°C 20% 4.6 mph S7.4 kmh S 6.0 mph9.7 kmh 30.09 in1019.0 mb 0.01 in0.3 mm 0.00 in/hr0.0 mm/hr 0.01 in0.3 mm
12:45 PM 38.6°F3.7°C 2.1°F-16.6°C 21% 6.8 mph SSE10.9 kmh SSE 13.0 mph20.9 kmh 30.09 in1019.0 mb 0.00 in0.0 mm 0.00 in/hr0.0 mm/hr 0.01 in0.3 mm
01:00 PM 38.0°F3.3°C 12.8°F-10.7°C 35% 6.7 mph SSE10.8 kmh SSE 9.2 mph14.8 kmh 30.08 in1018.6 mb 0.00 in0.0 mm 0.00 in/hr0.0 mm/hr 0.01 in0.3 mm
01:15 PM 36.0°F2.2°C 17.8°F-7.9°C 47% 5.5 mph SE8.9 kmh SE 9.2 mph14.8 kmh 30.06 in1017.9 mb 0.00 in0.0 mm 0.00 in/hr0.0 mm/hr 0.01 in0.3 mm
01:30 PM 34.8°F1.6°C 19.9°F-6.7°C 54% 6.3 mph S10.1 kmh S 8.3 mph13.4 kmh 30.05 in1017.6 mb 0.02 in0.5 mm 0.08 in/hr2.0 mm/hr 0.04 in1.0 mm
01:45 PM 34.4°F1.3°C 22.4°F-5.3°C 61% 4.8 mph S7.7 kmh S 6.9 mph11.1 kmh 30.04 in1017.3 mb 0.02 in0.5 mm 0.00 in/hr0.0 mm/hr 0.04 in1.0 mm
02:00 PM 34.8°F1.6°C 23.1°F-4.9°C 62% 3.9 mph S6.3 kmh S 6.0 mph9.7 kmh 30.03 in1016.9 mb 0.02 in0.5 mm 0.00 in/hr0.0 mm/hr 0.04 in1.0 mm
02:15 PM 35.7°F2.1°C 23.6°F-4.7°C 61% 6.0 mph S9.7 kmh S 9.2 mph14.8 kmh 30.03 in1016.9 mb 0.01 in0.3 mm 0.00 in/hr0.0 mm/hr 0.04 in1.0 mm
02:30 PM 36.4°F2.4°C 25.0°F-3.9°C 63% 3.7 mph S6.0 kmh S 7.6 mph12.2 kmh 30.01 in1016.3 mb 0.00 in0.0 mm 0.00 in/hr0.0 mm/hr 0.04 in1.0 mm
02:45 PM 37.5°F3.1°C 24.1°F-4.4°C 58% 7.2 mph SSW11.6 kmh SSW 10.7 mph17.2 kmh 30.02 in1016.6 mb 0.00 in0.0 mm 0.00 in/hr0.0 mm/hr 0.04 in1.0 mm
03:00 PM 38.4°F3.6°C 23.2°F-4.9°C 54% 6.4 mph S10.3 kmh S 10.7 mph17.2 kmh 30.02 in1016.6 mb 0.00 in0.0 mm 0.00 in/hr0.0 mm/hr 0.04 in1.0 mm
03:15 PM 38.9°F3.8°C 22.8°F-5.1°C 52% 6.6 mph S10.6 kmh S 8.3 mph13.4 kmh 30.03 in1016.9 mb 0.00 in0.0 mm 0.00 in/hr0.0 mm/hr 0.04 in1.0 mm
03:30 PM 40.0°F4.4°C 23.4°F-4.8°C 51% 7.9 mph SSW12.7 kmh SSW 13.6 mph21.9 kmh 30.01 in1016.3 mb 0.00 in0.0 mm 0.00 in/hr0.0 mm/hr 0.04 in1.0 mm
03:45 PM 41.1°F5.1°C 24.8°F-4.0°C 52% 8.7 mph S14.0 kmh S 13.0 mph20.9 kmh 30.00 in1015.9 mb 0.00 in0.0 mm 0.00 in/hr0.0 mm/hr 0.04 in1.0 mm
04:00 PM 41.3°F5.2°C 25.9°F-3.4°C 54% 11.2 mph SW18.0 kmh SW 17.4 mph28.0 kmh 30.01 in1016.3 mb 0.00 in0.0 mm 0.00 in/hr0.0 mm/hr 0.04 in1.0 mm
04:15 PM 41.3°F5.2°C 28.4°F-2.0°C 60% 7.7 mph SE12.4 kmh SE 15.2 mph24.5 kmh 30.03 in1016.9 mb 0.01 in0.3 mm 0.04 in/hr1.0 mm/hr 0.05 in1.3 mm
04:30 PM 40.7°F4.8°C 30.6°F-0.8°C 67% 8.7 mph SW14.0 kmh SW 19.0 mph30.6 kmh 30.03 in1016.9 mb 0.01 in0.3 mm 0.00 in/hr0.0 mm/hr 0.05 in1.3 mm
04:45 PM 41.1°F5.1°C 31.7°F-0.2°C 69% 9.2 mph SW14.8 kmh SW 17.4 mph28.0 kmh 30.02 in1016.6 mb 0.01 in0.3 mm 0.00 in/hr0.0 mm/hr 0.05 in1.3 mm
05:00 PM 41.3°F5.2°C 32.2°F0.1°C 70% 8.1 mph SW13.0 kmh SW 10.7 mph17.2 kmh 30.03 in1016.9 mb 0.01 in0.3 mm 0.00 in/hr0.0 mm/hr 0.05 in1.3 mm
05:15 PM 41.4°F5.2°C 32.4°F0.2°C 70% 7.4 mph SSW11.9 kmh SSW 11.4 mph18.3 kmh 30.03 in1016.9 mb 0.00 in0.0 mm 0.00 in/hr0.0 mm/hr 0.05 in1.3 mm
05:30 PM 41.6°F5.3°C 32.9°F0.5°C 71% 8.5 mph SSW13.7 kmh SSW 11.4 mph18.3 kmh 30.03 in1016.9 mb 0.00 in0.0 mm 0.00 in/hr0.0 mm/hr 0.05 in1.3 mm
05:45 PM 41.4°F5.2°C 33.1°F0.6°C 72% 9.4 mph S15.1 kmh S 12.1 mph19.5 kmh 30.02 in1016.6 mb 0.00 in0.0 mm 0.00 in/hr0.0 mm/hr 0.05 in1.3 mm
06:00 PM 41.1°F5.1°C 33.8°F1.0°C 75% 8.0 mph SSW12.9 kmh SSW 9.8 mph15.8 kmh 30.02 in1016.6 mb 0.01 in0.3 mm 0.01 in/hr0.3 mm/hr 0.06 in1.5 mm
06:15 PM 40.7°F4.8°C 35.0°F1.7°C 80% 8.2 mph S13.2 kmh S 13.0 mph20.9 kmh 30.02 in1016.6 mb 0.01 in0.3 mm 0.00 in/hr0.0 mm/hr 0.06 in1.5 mm
06:30 PM 40.7°F4.8°C 35.4°F1.9°C 81% 8.0 mph SSE12.9 kmh SSE 11.4 mph18.3 kmh 30.02 in1016.6 mb 0.01 in0.3 mm 0.00 in/hr0.0 mm/hr 0.06 in1.5 mm
06:45 PM 41.1°F5.1°C 35.7°F2.1°C 81% 8.2 mph S13.2 kmh S 13.6 mph21.9 kmh 30.01 in1016.3 mb 0.01 in0.3 mm 0.00 in/hr0.0 mm/hr 0.06 in1.5 mm
07:00 PM 41.4°F5.2°C 35.7°F2.1°C 80% 8.3 mph S13.4 kmh S 11.4 mph18.3 kmh 30.01 in1016.3 mb 0.00 in0.0 mm 0.00 in/hr0.0 mm/hr 0.06 in1.5 mm
07:15 PM 41.6°F5.3°C 35.9°F2.2°C 80% 8.8 mph S14.2 kmh S 14.5 mph23.3 kmh 30.00 in1015.9 mb 0.00 in0.0 mm 0.00 in/hr0.0 mm/hr 0.06 in1.5 mm
07:30 PM 41.8°F5.4°C 35.8°F2.1°C 79% 10.2 mph SW16.4 kmh SW 15.9 mph25.6 kmh 30.00 in1015.9 mb 0.00 in0.0 mm 0.00 in/hr0.0 mm/hr 0.06 in1.5 mm
07:45 PM 42.0°F5.6°C 35.6°F2.0°C 78% 8.3 mph SSW13.4 kmh SSW 10.7 mph17.2 kmh 30.01 in1016.3 mb 0.00 in0.0 mm 0.00 in/hr0.0 mm/hr 0.06 in1.5 mm
08:00 PM 42.2°F5.7°C 35.5°F1.9°C 77% 10.0 mph S16.1 kmh S 14.5 mph23.3 kmh 30.01 in1016.3 mb 0.00 in0.0 mm 0.00 in/hr0.0 mm/hr 0.06 in1.5 mm
08:15 PM 42.2°F5.7°C 35.8°F2.1°C 78% 9.8 mph S15.8 kmh S 14.5 mph23.3 kmh 30.01 in1016.3 mb 0.00 in0.0 mm 0.00 in/hr0.0 mm/hr 0.06 in1.5 mm
08:30 PM 42.5°F5.8°C 36.5°F2.5°C 79% 8.0 mph SSW12.9 kmh SSW 13.0 mph20.9 kmh 30.00 in1015.9 mb 0.00 in0.0 mm 0.00 in/hr0.0 mm/hr 0.06 in1.5 mm
08:45 PM 42.9°F6.1°C 36.5°F2.5°C 78% 9.9 mph S15.9 kmh S 13.6 mph21.9 kmh 30.00 in1015.9 mb 0.00 in0.0 mm 0.00 in/hr0.0 mm/hr 0.06 in1.5 mm
09:00 PM 43.1°F6.2°C 36.4°F2.4°C 77% 8.9 mph SSW14.3 kmh SSW 13.6 mph21.9 kmh 30.00 in1015.9 mb 0.00 in0.0 mm 0.00 in/hr0.0 mm/hr 0.06 in1.5 mm
09:15 PM 43.2°F6.2°C 36.2°F2.3°C 76% 9.4 mph SSW15.1 kmh SSW 12.1 mph19.5 kmh 30.01 in1016.3 mb 0.00 in0.0 mm 0.00 in/hr0.0 mm/hr 0.06 in1.5 mm
09:30 PM 43.2°F6.2°C 35.9°F2.2°C 75% 8.3 mph SSW13.4 kmh SSW 12.1 mph19.5 kmh 30.00 in1015.9 mb 0.00 in0.0 mm 0.00 in/hr0.0 mm/hr 0.06 in1.5 mm
09:45 PM 43.2°F6.2°C 35.9°F2.2°C 75% 8.5 mph SE13.7 kmh SE 13.6 mph21.9 kmh 30.00 in1015.9 mb 0.00 in0.0 mm 0.00 in/hr0.0 mm/hr 0.06 in1.5 mm
10:00 PM 43.4°F6.3°C 35.7°F2.1°C 74% 7.5 mph ESE12.1 kmh ESE 9.8 mph15.8 kmh 30.00 in1015.9 mb 0.00 in0.0 mm 0.00 in/hr0.0 mm/hr 0.06 in1.5 mm
10:15 PM 43.6°F6.4°C 35.5°F1.9°C 73% 9.6 mph WSW15.4 kmh WSW 12.1 mph19.5 kmh 30.00 in1015.9 mb 0.00 in0.0 mm 0.00 in/hr0.0 mm/hr 0.06 in1.5 mm
10:30 PM 43.8°F6.6°C 36.0°F2.2°C 74% 8.1 mph SSW13.0 kmh SSW 11.4 mph18.3 kmh 30.01 in1016.3 mb 0.00 in0.0 mm 0.00 in/hr0.0 mm/hr 0.06 in1.5 mm
10:45 PM 43.2°F6.2°C 37.2°F2.9°C 79% 9.8 mph SW15.8 kmh SW 13.0 mph20.9 kmh 30.00 in1015.9 mb 0.00 in0.0 mm 0.00 in/hr0.0 mm/hr 0.06 in1.5 mm
11:00 PM 43.2°F6.2°C 37.5°F3.1°C 80% 10.4 mph SSE16.7 kmh SSE 13.6 mph21.9 kmh 30.01 in1016.3 mb 0.02 in0.5 mm 0.03 in/hr0.8 mm/hr 0.08 in2.0 mm
11:15 PM 42.7°F5.9°C 37.6°F3.1°C 82% 10.2 mph SSW16.4 kmh SSW 12.1 mph19.5 kmh 30.01 in1016.3 mb 0.02 in0.5 mm 0.00 in/hr0.0 mm/hr 0.08 in2.0 mm
11:30 PM 42.7°F5.9°C 37.9°F3.3°C 83% 9.1 mph SSW14.6 kmh SSW 12.1 mph19.5 kmh 30.01 in1016.3 mb 0.02 in0.5 mm 0.00 in/hr0.0 mm/hr 0.08 in2.0 mm
11:45 PM 42.9°F6.1°C 38.4°F3.6°C 84% 8.0 mph S12.9 kmh S 13.0 mph20.9 kmh 30.01 in1016.3 mb 0.04 in1.0 mm 0.08 in/hr2.0 mm/hr 0.09 in2.3 mm